Time;durP1;ratioP1;P1;durP2;ratioP2;P2;SDS_P1;SDS_P2;PMS_P1;PMS_P2;Temp;Humidity;BMP_temperature;BMP_pressure;BME280_temperature;BME280_humidity;BME280_pressure;Samples;Min_cycle;Max_cycle;Signal;HPM_P1;HPM_P2
2021/04/25 00:00:18;;;;;;;3.05;1.73;;;18.00;46.30;;;;;;5005637;28;20212;-77
2021/04/25 00:02:45;;;;;;;2.10;1.38;;;18.00;46.20;;;;;;4989169;28;20176;-77
2021/04/25 00:05:21;;;;;;;3.05;1.55;;;18.00;47.10;;;;;;5006681;28;20239;-77
2021/04/25 00:07:47;;;;;;;3.03;1.42;;;18.00;46.30;;;;;;5006764;28;20191;-77
2021/04/25 00:10:15;;;;;;;2.78;1.60;;;18.00;46.40;;;;;;4988630;28;20291;-77
2021/04/25 00:12:42;;;;;;;2.10;1.50;;;18.00;46.10;;;;;;5006124;28;20152;-77
2021/04/25 00:15:31;;;;;;;3.17;1.33;;;18.00;46.30;;;;;;4989872;28;20224;-76
2021/04/25 00:18:17;;;;;;;2.35;1.30;;;18.00;46.20;;;;;;5006912;28;20164;-77
2021/04/25 00:21:04;;;;;;;1.50;1.30;;;17.90;46.20;;;;;;5006406;28;20168;-77
2021/04/25 00:23:50;;;;;;;2.85;1.60;;;18.00;46.40;;;;;;5006648;28;20195;-77
2021/04/25 00:26:35;;;;;;;4.75;1.65;;;18.00;46.30;;;;;;5006199;28;20157;-77
2021/04/25 00:29:22;;;;;;;2.65;1.60;;;18.00;46.40;;;;;;5005373;28;20196;-77
2021/04/25 00:32:06;;;;;;;2.75;1.55;;;18.00;46.40;;;;;;4988912;28;20183;-77
2021/04/25 00:34:33;;;;;;;2.83;1.60;;;18.00;46.40;;;;;;5006488;28;20152;-77
2021/04/25 00:36:59;;;;;;;2.45;1.48;;;17.90;46.30;;;;;;4988099;28;20257;-76
2021/04/25 00:39:25;;;;;;;3.22;1.40;;;17.90;46.30;;;;;;5006727;28;20644;-77
2021/04/25 00:42:00;;;;;;;2.58;1.50;;;17.90;46.40;;;;;;4988571;28;20168;-77
2021/04/25 00:44:27;;;;;;;6.13;1.85;;;17.90;46.40;;;;;;5006129;28;20160;-77
2021/04/25 00:46:54;;;;;;;2.28;1.33;;;17.90;46.40;;;;;;4988785;28;20169;-77
2021/04/25 00:49:20;;;;;;;2.88;1.40;;;17.90;46.40;;;;;;5005595;28;20241;-77
2021/04/25 00:51:47;;;;;;;3.40;1.40;;;17.90;46.40;;;;;;5006352;28;20514;-77
2021/04/25 00:54:21;;;;;;;2.30;1.50;;;17.90;46.40;;;;;;4988475;28;20168;-77
2021/04/25 00:56:48;;;;;;;2.95;1.55;;;17.90;46.50;;;;;;4989148;28;20251;-76
2021/04/25 00:59:15;;;;;;;2.00;1.35;;;17.90;46.50;;;;;;5006052;28;20156;-77
2021/04/25 01:01:42;;;;;;;2.90;1.60;;;17.90;46.30;;;;;;4989069;28;20347;-77
2021/04/25 01:04:08;;;;;;;2.28;1.33;;;17.90;46.30;;;;;;5005707;28;20631;-77
2021/04/25 01:06:35;;;;;;;2.20;1.38;;;17.90;46.20;;;;;;5005716;28;20183;-77
2021/04/25 01:09:01;;;;;;;2.40;1.35;;;17.90;46.20;;;;;;5006077;28;20196;-77
2021/04/25 01:11:27;;;;;;;2.15;1.45;;;17.90;46.30;;;;;;5005462;28;20222;-77
2021/04/25 01:13:54;;;;;;;2.90;1.35;;;17.90;46.20;;;;;;4986667;28;20191;-77
2021/04/25 01:16:21;;;;;;;4.47;1.40;;;17.90;46.30;;;;;;4988133;28;20251;-77
2021/04/25 01:18:49;;;;;;;2.85;1.27;;;17.90;46.40;;;;;;5005235;28;20233;-77
2021/04/25 01:21:15;;;;;;;2.33;1.23;;;17.90;46.40;;;;;;4988074;28;20160;-76
2021/04/25 01:23:50;;;;;;;2.70;1.48;;;17.90;46.50;;;;;;4988598;28;20694;-77
2021/04/25 01:26:16;;;;;;;2.33;1.42;;;17.90;46.40;;;;;;5005164;28;20225;-76
2021/04/25 01:28:43;;;;;;;1.90;1.33;;;17.90;46.50;;;;;;5004864;28;20243;-77
2021/04/25 01:31:09;;;;;;;1.35;1.15;;;17.90;46.50;;;;;;4988152;28;20160;-77
2021/04/25 01:33:36;;;;;;;1.83;1.40;;;17.90;46.30;;;;;;4988268;28;20171;-77
2021/04/25 01:36:04;;;;;;;2.28;1.40;;;17.90;46.60;;;;;;4971132;28;20168;-77
2021/04/25 01:38:30;;;;;;;3.30;1.23;;;17.90;46.50;;;;;;5004889;28;20634;-77
2021/04/25 01:41:05;;;;;;;2.42;1.40;;;17.90;46.60;;;;;;4986949;28;20152;-77
2021/04/25 01:43:39;;;;;;;2.00;1.30;;;17.90;46.60;;;;;;4987796;28;20163;-77
2021/04/25 01:46:05;;;;;;;4.13;1.75;;;17.90;46.40;;;;;;5005066;28;20183;-77
2021/04/25 01:48:33;;;;;;;2.25;1.20;;;17.90;46.40;;;;;;5004845;28;20188;-77
2021/04/25 01:50:59;;;;;;;2.75;1.35;;;17.90;46.40;;;;;;5004539;28;20174;-77
2021/04/25 01:53:26;;;;;;;3.00;1.50;;;17.90;46.30;;;;;;5004126;28;20243;-77
2021/04/25 01:55:53;;;;;;;2.28;1.27;;;17.90;46.70;;;;;;5004656;28;20160;-77
2021/04/25 01:58:19;;;;;;;2.55;1.40;;;17.90;46.60;;;;;;4987695;28;20180;-77
2021/04/25 02:00:45;;;;;;;3.28;1.38;;;17.90;46.50;;;;;;4987275;28;20235;-77
2021/04/25 02:03:13;;;;;;;2.83;1.48;;;17.90;46.40;;;;;;5004185;28;20232;-77
2021/04/25 02:05:40;;;;;;;4.55;1.70;;;17.90;46.60;;;;;;4987664;28;20191;-77
2021/04/25 02:08:15;;;;;;;1.88;1.27;;;17.90;46.40;;;;;;5005149;28;20184;-77
2021/04/25 02:10:42;;;;;;;2.45;1.58;;;17.90;46.50;;;;;;5002954;28;20211;-77
2021/04/25 02:13:08;;;;;;;3.30;1.75;;;17.80;46.50;;;;;;5004189;28;20226;-77
2021/04/25 02:15:35;;;;;;;3.25;1.50;;;17.80;46.70;;;;;;5004181;28;20160;-77
2021/04/25 02:18:09;;;;;;;2.25;1.50;;;17.80;46.50;;;;;;5004003;28;20160;-77
2021/04/25 02:20:35;;;;;;;1.60;1.20;;;17.80;46.60;;;;;;4987048;28;20190;-77
2021/04/25 02:23:10;;;;;;;2.65;1.40;;;17.80;46.40;;;;;;5004182;28;20164;-77
2021/04/25 02:25:36;;;;;;;2.97;1.60;;;17.80;46.30;;;;;;5003722;28;20171;-77
2021/04/25 02:28:04;;;;;;;2.33;1.45;;;17.80;46.40;;;;;;5004022;28;20184;-77
2021/04/25 02:30:41;;;;;;;3.55;1.35;;;17.80;46.40;;;;;;5004403;28;20160;-77
2021/04/25 02:33:08;;;;;;;2.30;1.60;;;17.80;46.40;;;;;;4986809;28;20179;-77
2021/04/25 02:35:35;;;;;;;2.95;1.60;;;17.80;46.50;;;;;;5004270;28;20160;-76
2021/04/25 02:38:01;;;;;;;2.97;1.63;;;17.80;46.50;;;;;;4986929;28;20156;-77
2021/04/25 02:40:30;;;;;;;3.55;1.42;;;17.80;46.30;;;;;;5004521;28;20220;-77
2021/04/25 02:42:57;;;;;;;1.92;1.10;;;17.80;46.20;;;;;;5003856;28;20160;-77
2021/04/25 02:45:24;;;;;;;2.47;1.30;;;17.80;46.50;;;;;;4986008;28;20164;-77
2021/04/25 02:47:55;;;;;;;2.58;1.55;;;17.90;46.30;;;;;;4986547;28;20222;-77
2021/04/25 02:50:23;;;;;;;3.08;1.30;;;17.90;46.40;;;;;;5003710;28;20183;-77
2021/04/25 02:52:49;;;;;;;1.88;1.13;;;17.90;46.40;;;;;;5004459;28;20156;-77
2021/04/25 02:55:16;;;;;;;2.50;1.20;;;17.80;46.20;;;;;;4985925;28;20161;-77
2021/04/25 02:57:43;;;;;;;3.65;1.42;;;17.80;46.40;;;;;;4986247;28;20164;-77
2021/04/25 03:00:11;;;;;;;2.40;1.30;;;17.80;46.50;;;;;;5003329;28;20347;-77
2021/04/25 03:02:39;;;;;;;1.50;1.10;;;17.80;46.50;;;;;;5004526;28;20160;-77
2021/04/25 03:05:07;;;;;;;2.10;1.30;;;17.80;46.40;;;;;;5003488;28;20160;-77
2021/04/25 03:07:34;;;;;;;2.10;1.35;;;17.80;46.50;;;;;;4986450;28;20179;-77
2021/04/25 03:10:00;;;;;;;3.08;1.23;;;17.80;46.20;;;;;;5003864;28;20160;-77
2021/04/25 03:12:32;;;;;;;2.22;1.42;;;17.80;46.50;;;;;;5003241;28;20148;-77
2021/04/25 03:14:59;;;;;;;3.22;1.67;;;17.80;46.30;;;;;;4986679;28;20161;-77
2021/04/25 03:17:25;;;;;;;2.17;1.25;;;17.80;46.40;;;;;;4986419;28;20160;-77
2021/04/25 03:19:52;;;;;;;2.47;1.65;;;17.80;46.30;;;;;;5003737;28;20231;-77
2021/04/25 03:22:18;;;;;;;3.38;1.45;;;17.80;46.40;;;;;;5002888;28;20164;-77
2021/04/25 03:24:45;;;;;;;1.85;1.30;;;17.80;46.50;;;;;;5003530;28;20157;-77
2021/04/25 03:27:12;;;;;;;3.80;1.35;;;17.80;46.60;;;;;;4986332;28;20156;-77
2021/04/25 03:29:39;;;;;;;3.67;1.30;;;17.80;46.30;;;;;;5003240;28;20198;-77
2021/04/25 03:32:14;;;;;;;1.92;1.50;;;17.80;46.20;;;;;;4969267;28;20168;-77
2021/04/25 03:34:49;;;;;;;4.38;1.52;;;17.80;46.50;;;;;;5003690;28;20163;-77
2021/04/25 03:37:16;;;;;;;2.60;1.27;;;17.80;46.40;;;;;;5006341;28;20156;-77
2021/04/25 03:39:42;;;;;;;2.47;1.42;;;17.80;46.40;;;;;;4990036;28;20187;-77
2021/04/25 03:42:09;;;;;;;2.92;1.40;;;17.70;46.50;;;;;;4990578;28;20164;-77
2021/04/25 03:44:35;;;;;;;3.50;1.73;;;17.80;46.60;;;;;;5006940;28;20164;-77
2021/04/25 03:47:02;;;;;;;2.67;1.15;;;17.80;46.40;;;;;;4988059;28;20191;-77
2021/04/25 03:49:29;;;;;;;2.53;1.38;;;17.80;46.60;;;;;;5007119;28;20274;-78
2021/04/25 03:51:55;;;;;;;1.80;1.27;;;17.80;46.60;;;;;;5007173;28;20153;-77
2021/04/25 03:54:23;;;;;;;1.88;1.52;;;17.80;46.50;;;;;;5006818;28;20159;-77
2021/04/25 03:56:50;;;;;;;1.40;1.30;;;17.80;46.30;;;;;;5006330;28;20179;-77
2021/04/25 03:59:17;;;;;;;4.38;1.55;;;17.70;46.40;;;;;;5007466;28;20152;-77
2021/04/25 04:01:43;;;;;;;2.58;1.65;;;17.80;46.40;;;;;;5007085;28;20230;-77
2021/04/25 04:04:09;;;;;;;1.75;1.13;;;17.80;46.50;;;;;;5006950;28;20222;-77
2021/04/25 04:06:36;;;;;;;1.58;1.02;;;17.70;46.50;;;;;;4973070;28;20168;-77
2021/04/25 04:09:11;;;;;;;2.10;1.50;;;17.80;46.50;;;;;;5006445;28;20184;-77
2021/04/25 04:11:46;;;;;;;2.65;1.15;;;17.70;46.60;;;;;;4989401;28;20587;-77
2021/04/25 04:14:12;;;;;;;2.67;1.27;;;17.70;46.40;;;;;;5006055;28;20163;-77
2021/04/25 04:16:39;;;;;;;1.92;1.35;;;17.70;46.20;;;;;;5006414;28;20161;-77
2021/04/25 04:19:06;;;;;;;2.45;1.50;;;17.70;46.60;;;;;;4989562;28;20183;-77
2021/04/25 04:21:33;;;;;;;2.35;1.33;;;17.70;46.30;;;;;;5006787;28;20161;-76
2021/04/25 04:23:59;;;;;;;2.17;1.70;;;17.80;46.50;;;;;;5006863;28;20172;-77
2021/04/25 04:26:26;;;;;;;2.92;1.42;;;17.70;46.40;;;;;;4989109;28;20173;-76
2021/04/25 04:28:54;;;;;;;2.90;1.20;;;17.70;46.40;;;;;;4989878;28;20299;-77
2021/04/25 04:31:20;;;;;;;1.85;1.33;;;17.80;46.50;;;;;;5006136;28;20184;-76
2021/04/25 04:33:47;;;;;;;2.08;1.30;;;17.70;46.30;;;;;;4989610;28;20160;-76
2021/04/25 04:36:21;;;;;;;1.90;1.25;;;17.70;46.50;;;;;;4988379;28;20163;-76
2021/04/25 04:38:47;;;;;;;2.38;1.23;;;17.70;46.10;;;;;;5006581;28;20159;-76
2021/04/25 04:41:14;;;;;;;2.70;1.50;;;17.80;46.40;;;;;;5006174;28;20168;-76
2021/04/25 04:43:41;;;;;;;2.60;1.20;;;17.80;46.20;;;;;;4989280;28;20225;-77
2021/04/25 04:46:07;;;;;;;1.48;1.00;;;17.80;46.20;;;;;;5005381;28;20184;-77
2021/04/25 04:48:34;;;;;;;1.73;1.10;;;17.80;46.20;;;;;;5006041;28;20191;-76
2021/04/25 04:51:00;;;;;;;1.70;1.10;;;17.80;46.20;;;;;;5005667;28;20160;-77
2021/04/25 04:53:26;;;;;;;2.15;1.38;;;17.80;46.20;;;;;;4988151;28;20236;-77
2021/04/25 04:55:53;;;;;;;2.13;1.23;;;17.80;46.20;;;;;;4987688;28;20172;-77
2021/04/25 04:58:20;;;;;;;2.40;1.25;;;17.80;46.30;;;;;;5005493;28;20164;-77
2021/04/25 05:00:45;;;;;;;2.75;1.40;;;17.80;46.20;;;;;;4987904;28;20587;-76
2021/04/25 05:03:12;;;;;;;2.40;1.30;;;17.80;46.20;;;;;;4988838;28;20176;-77
2021/04/25 05:05:38;;;;;;;3.30;1.50;;;17.80;46.30;;;;;;5005717;28;20207;-77
2021/04/25 05:08:05;;;;;;;2.30;1.40;;;17.80;46.10;;;;;;4988267;28;20196;-76
2021/04/25 05:10:31;;;;;;;3.58;1.50;;;17.80;46.20;;;;;;4987663;28;20168;-76
2021/04/25 05:12:58;;;;;;;1.45;1.15;;;17.80;46.20;;;;;;4972019;28;20180;-76
2021/04/25 05:15:24;;;;;;;2.60;1.30;;;17.80;45.90;;;;;;5005030;28;20624;-76
2021/04/25 05:17:51;;;;;;;1.92;1.40;;;17.80;46.20;;;;;;4985444;28;20171;-76
2021/04/25 05:20:18;;;;;;;1.20;1.10;;;17.80;46.10;;;;;;4985950;28;20163;-76
2021/04/25 05:22:45;;;;;;;2.42;1.55;;;17.80;46.10;;;;;;5003434;28;20160;-76
2021/04/25 05:25:12;;;;;;;2.05;1.40;;;17.80;46.10;;;;;;5003780;28;20530;-77
2021/04/25 05:27:39;;;;;;;2.00;1.30;;;17.80;45.90;;;;;;4985907;28;20171;-76
2021/04/25 05:30:14;;;;;;;1.70;1.30;;;17.80;45.80;;;;;;5002744;28;20156;-77
2021/04/25 05:32:41;;;;;;;2.53;1.38;;;17.80;45.90;;;;;;4986041;28;20168;-77
2021/04/25 05:35:10;;;;;;;3.40;1.48;;;17.80;46.00;;;;;;5003471;28;20160;-77
2021/04/25 05:37:37;;;;;;;1.92;1.30;;;17.80;46.20;;;;;;5003574;28;20160;-77
2021/04/25 05:40:13;;;;;;;2.50;1.45;;;17.80;46.00;;;;;;5003730;28;20214;-77
2021/04/25 05:42:47;;;;;;;2.35;1.20;;;17.80;46.00;;;;;;4985834;28;20163;-77
2021/04/25 05:45:21;;;;;;;2.33;1.30;;;17.80;46.10;;;;;;4985897;28;20160;-77
2021/04/25 05:47:53;;;;;;;2.13;1.27;;;17.80;45.70;;;;;;4986719;28;20318;-77
2021/04/25 05:50:21;;;;;;;3.45;1.42;;;17.80;45.90;;;;;;5003508;28;20173;-76
2021/04/25 05:52:48;;;;;;;2.47;1.20;;;17.90;45.90;;;;;;4985986;28;20188;-77
2021/04/25 05:55:15;;;;;;;1.65;1.10;;;17.90;45.90;;;;;;5003234;28;20152;-77
2021/04/25 05:57:41;;;;;;;2.33;1.30;;;17.80;45.80;;;;;;5003092;28;20160;-77
2021/04/25 06:00:08;;;;;;;3.00;1.67;;;17.90;45.90;;;;;;4984788;28;20157;-77
2021/04/25 06:02:34;;;;;;;2.83;1.63;;;17.90;45.80;;;;;;5003288;28;20160;-76
2021/04/25 06:05:01;;;;;;;2.10;1.30;;;17.90;45.70;;;;;;5002762;28;20157;-77
2021/04/25 06:07:35;;;;;;;2.42;1.30;;;17.90;45.90;;;;;;4985082;28;20180;-77
2021/04/25 06:10:13;;;;;;;1.67;1.25;;;17.90;45.80;;;;;;5002758;28;20179;-77
2021/04/25 06:12:40;;;;;;;2.67;1.17;;;17.90;45.90;;;;;;4986191;28;20187;-77
2021/04/25 06:15:07;;;;;;;3.70;1.45;;;17.90;45.90;;;;;;4984915;28;20168;-76
2021/04/25 06:17:34;;;;;;;2.97;1.40;;;17.90;45.80;;;;;;4984988;28;20635;-77
2021/04/25 06:20:01;;;;;;;1.67;1.35;;;17.90;45.90;;;;;;5002798;28;20160;-77
2021/04/25 06:22:27;;;;;;;1.73;1.20;;;17.90;45.80;;;;;;4984759;28;20252;-77
2021/04/25 06:24:56;;;;;;;4.32;1.25;;;17.90;45.60;;;;;;5002287;28;20156;-77
2021/04/25 06:27:25;;;;;;;1.40;1.20;;;17.90;46.50;;;;;;5001700;28;20500;-76
2021/04/25 06:29:54;;;;;;;1.77;1.27;;;17.80;45.80;;;;;;5002979;28;20157;-77
2021/04/25 06:32:20;;;;;;;1.48;1.20;;;17.80;45.80;;;;;;4984029;28;20246;-77
2021/04/25 06:34:55;;;;;;;1.80;1.17;;;17.80;45.60;;;;;;4984589;28;20164;-77
2021/04/25 06:37:21;;;;;;;1.48;1.17;;;17.80;45.60;;;;;;5002885;28;20167;-77
2021/04/25 06:39:48;;;;;;;2.03;1.30;;;17.80;45.70;;;;;;5002279;28;20152;-76
2021/04/25 06:42:15;;;;;;;1.52;1.20;;;17.80;45.80;;;;;;5002503;28;20171;-77
2021/04/25 06:44:42;;;;;;;2.60;1.50;;;17.80;45.50;;;;;;4985100;28;20176;-76
2021/04/25 06:47:09;;;;;;;2.65;1.40;;;17.70;45.80;;;;;;5002242;28;20164;-76
2021/04/25 06:49:35;;;;;;;3.67;1.23;;;17.70;45.90;;;;;;4985292;28;20192;-77
2021/04/25 06:52:02;;;;;;;3.13;1.25;;;17.80;42.90;;;;;;5003319;28;20164;-77
2021/04/25 06:54:29;;;;;;;2.50;1.63;;;17.80;44.50;;;;;;4985405;28;20231;-76
2021/04/25 06:56:56;;;;;;;2.35;1.17;;;17.80;44.40;;;;;;4986562;28;20157;-77
2021/04/25 06:59:22;;;;;;;2.88;1.25;;;17.80;43.70;;;;;;5003448;28;20172;-77
2021/04/25 07:01:49;;;;;;;4.13;1.33;;;17.80;44.90;;;;;;5003116;28;20305;-77
2021/04/25 07:04:15;;;;;;;1.75;0.93;;;17.80;43.70;;;;;;4985284;28;20182;-77
2021/04/25 07:06:42;;;;;;;1.92;1.05;;;17.70;44.30;;;;;;5002980;28;20164;-77
2021/04/25 07:09:09;;;;;;;2.17;1.23;;;17.80;43.50;;;;;;5003858;28;20677;-77
2021/04/25 07:11:35;;;;;;;2.15;1.13;;;17.80;44.30;;;;;;4988685;28;20160;-76
2021/04/25 07:14:02;;;;;;;4.13;1.15;;;17.80;43.10;;;;;;4990878;28;20216;-77
2021/04/25 07:16:28;;;;;;;2.65;1.65;;;17.80;44.00;;;;;;5007877;28;20179;-77
2021/04/25 07:18:55;;;;;;;3.03;1.13;;;17.80;43.40;;;;;;4990248;28;20267;-76
2021/04/25 07:21:21;;;;;;;4.32;1.20;;;17.80;42.90;;;;;;5007761;28;20279;-77
2021/04/25 07:23:55;;;;;;;1.67;1.13;;;17.80;43.30;;;;;;5007047;28;20166;-77
2021/04/25 07:26:22;;;;;;;4.13;1.35;;;17.80;43.70;;;;;;5008003;28;20270;-77
2021/04/25 07:28:49;;;;;;;2.55;1.20;;;17.70;43.20;;;;;;5007749;28;20192;-77
2021/04/25 07:31:15;;;;;;;4.13;1.33;;;17.70;44.00;;;;;;4990194;28;20163;-77
2021/04/25 07:33:42;;;;;;;2.20;1.20;;;17.70;42.50;;;;;;5006511;28;20161;-76
2021/04/25 07:36:09;;;;;;;1.42;1.17;;;17.70;43.30;;;;;;5007686;28;20164;-77
2021/04/25 07:38:37;;;;;;;2.15;1.25;;;17.70;43.40;;;;;;5006790;28;20153;-76
2021/04/25 07:41:04;;;;;;;2.40;1.02;;;17.80;42.40;;;;;;4989716;28;20167;-76
2021/04/25 07:43:30;;;;;;;2.95;1.42;;;17.80;42.70;;;;;;4989582;28;20585;-77
2021/04/25 07:45:57;;;;;;;3.28;1.15;;;17.80;44.60;;;;;;5007000;28;20172;-77
2021/04/25 07:48:23;;;;;;;2.40;1.10;;;17.70;45.20;;;;;;5006202;28;20184;-77
2021/04/25 07:50:50;;;;;;;3.55;1.33;;;17.70;44.90;;;;;;4989075;28;20160;-77
2021/04/25 07:53:17;;;;;;;1.92;1.27;;;17.70;44.20;;;;;;4989814;28;20259;-77
2021/04/25 07:55:44;;;;;;;4.05;1.25;;;17.70;43.10;;;;;;5006576;28;20277;-77
2021/04/25 07:58:10;;;;;;;3.35;1.15;;;17.70;44.40;;;;;;4989309;28;20252;-77
2021/04/25 08:00:36;;;;;;;6.03;1.50;;;17.70;44.20;;;;;;5006023;28;20212;-77
2021/04/25 08:03:03;;;;;;;3.53;1.23;;;17.70;44.00;;;;;;5006013;28;20639;-77
2021/04/25 08:05:31;;;;;;;4.45;1.25;;;17.70;43.90;;;;;;4986946;28;20168;-77
2021/04/25 08:07:58;;;;;;;2.55;1.20;;;17.80;44.30;;;;;;5004501;28;20192;-78
2021/04/25 08:10:25;;;;;;;4.00;1.30;;;17.70;43.80;;;;;;5005381;28;20160;-79
2021/04/25 08:12:51;;;;;;;3.85;1.55;;;17.70;44.20;;;;;;4987607;28;20619;-77
2021/04/25 08:15:18;;;;;;;3.55;1.10;;;17.70;44.60;;;;;;4988310;28;20183;-77
2021/04/25 08:17:44;;;;;;;7.07;1.58;;;17.70;44.70;;;;;;4987118;28;20247;-78
2021/04/25 08:20:14;;;;;;;2.88;1.20;;;17.70;44.70;;;;;;5003849;28;20286;-77
2021/04/25 08:22:40;;;;;;;3.10;1.30;;;17.70;44.80;;;;;;4986428;28;20160;-77
2021/04/25 08:25:07;;;;;;;5.63;1.52;;;17.70;45.00;;;;;;5005188;28;20160;-77
2021/04/25 08:27:34;;;;;;;3.15;1.45;;;17.70;45.00;;;;;;4987331;28;20211;-77
2021/04/25 08:30:00;;;;;;;1.63;1.20;;;17.70;45.10;;;;;;5004490;28;20160;-77
2021/04/25 08:32:27;;;;;;;2.35;1.30;;;17.70;45.20;;;;;;5002942;28;20253;-77
2021/04/25 08:34:53;;;;;;;2.95;1.48;;;17.70;45.20;;;;;;5002224;28;20167;-77
2021/04/25 08:37:20;;;;;;;3.83;1.27;;;17.70;45.00;;;;;;5004252;28;20243;-77
2021/04/25 08:39:46;;;;;;;2.67;1.27;;;17.70;44.80;;;;;;5003507;28;20303;-77
2021/04/25 08:42:13;;;;;;;1.95;1.50;;;17.70;44.40;;;;;;4985158;28;20563;-76
2021/04/25 08:44:42;;;;;;;3.83;1.40;;;17.80;44.30;;;;;;5002733;28;20164;-77
2021/04/25 08:47:08;;;;;;;3.95;1.42;;;17.70;44.20;;;;;;4985729;28;20216;-78
2021/04/25 08:49:35;;;;;;;2.55;1.20;;;17.70;44.10;;;;;;4985812;28;20219;-78
2021/04/25 08:52:01;;;;;;;3.33;1.10;;;17.80;44.00;;;;;;4985750;28;20153;-78
2021/04/25 08:54:28;;;;;;;3.72;1.35;;;17.80;43.70;;;;;;5002875;28;20172;-78
2021/04/25 08:56:58;;;;;;;2.28;1.27;;;17.80;43.70;;;;;;5002324;28;20160;-78
2021/04/25 08:59:24;;;;;;;4.90;1.40;;;17.80;43.40;;;;;;4983878;28;20503;-79
2021/04/25 09:01:50;;;;;;;13.52;1.52;;;17.90;43.50;;;;;;5001090;28;20219;-78
2021/04/25 09:04:17;;;;;;;3.78;1.50;;;17.90;42.60;;;;;;5002055;28;20167;-78
2021/04/25 09:06:59;;;;;;;2.47;1.38;;;17.90;42.50;;;;;;5001168;28;20164;-78
2021/04/25 09:09:52;;;;;;;3.70;1.67;;;17.90;42.70;;;;;;4983302;28;20218;-78
2021/04/25 09:12:31;;;;;;;5.60;1.30;;;18.00;43.50;;;;;;4981135;28;20156;-78
2021/04/25 09:15:06;;;;;;;2.63;1.20;;;18.10;43.40;;;;;;4998835;28;20227;-78
2021/04/25 09:17:52;;;;;;;3.20;1.50;;;18.10;42.70;;;;;;4997513;28;20160;-77
2021/04/25 09:20:19;;;;;;;3.30;1.33;;;18.10;42.80;;;;;;4981758;28;20634;-78
2021/04/25 09:22:52;;;;;;;3.92;1.33;;;18.10;43.50;;;;;;4979867;28;20153;-78
2021/04/25 09:25:19;;;;;;;4.32;1.40;;;18.00;43.60;;;;;;4999672;28;20171;-78
2021/04/25 09:27:48;;;;;;;2.88;1.20;;;18.10;42.90;;;;;;4982927;28;20156;-78
2021/04/25 09:30:22;;;;;;;4.78;1.60;;;18.00;43.40;;;;;;5000409;28;20583;-78
2021/04/25 09:32:48;;;;;;;4.13;1.40;;;18.00;43.50;;;;;;4982685;28;20336;-78
2021/04/25 09:35:18;;;;;;;3.17;1.33;;;18.00;43.70;;;;;;4981797;28;20622;-78
2021/04/25 09:37:46;;;;;;;2.08;1.35;;;18.00;43.90;;;;;;4998972;28;20650;-77
2021/04/25 09:40:19;;;;;;;3.22;1.50;;;18.00;43.60;;;;;;4982408;28;20187;-77
2021/04/25 09:43:08;;;;;;;3.35;1.50;;;18.00;43.50;;;;;;4981614;28;20636;-77
2021/04/25 09:45:41;;;;;;;3.28;1.55;;;18.00;43.40;;;;;;4999163;28;20174;-77
2021/04/25 09:48:28;;;;;;;5.68;1.42;;;18.10;43.60;;;;;;4999108;28;20191;-77
2021/04/25 09:51:05;;;;;;;2.50;1.35;;;18.10;43.50;;;;;;4998462;28;20160;-78
2021/04/25 09:53:31;;;;;;;4.53;1.50;;;18.10;43.60;;;;;;4998408;28;20175;-77
2021/04/25 09:55:58;;;;;;;3.92;1.30;;;18.10;43.50;;;;;;4980190;28;20616;-77
2021/04/25 09:58:27;;;;;;;3.28;1.40;;;18.10;43.60;;;;;;4997409;28;20244;-77
2021/04/25 10:00:52;;;;;;;2.85;1.40;;;18.10;43.20;;;;;;4999863;28;20287;-77
2021/04/25 10:03:20;;;;;;;5.60;1.48;;;18.20;43.10;;;;;;4983995;28;20176;-77
2021/04/25 10:06:16;;;;;;;3.25;1.33;;;18.10;43.50;;;;;;5001317;28;20156;-77
2021/04/25 10:08:44;;;;;;;6.30;1.27;;;18.20;43.60;;;;;;4981757;28;20196;-77
2021/04/25 10:11:10;;;;;;;7.07;1.50;;;18.10;43.40;;;;;;4984759;28;20152;-78
2021/04/25 10:13:39;;;;;;;3.20;1.60;;;18.10;43.60;;;;;;4983218;28;20521;-77
2021/04/25 10:16:05;;;;;;;5.32;1.30;;;18.20;43.30;;;;;;5000470;28;20199;-78
2021/04/25 10:18:32;;;;;;;3.15;1.60;;;18.20;43.90;;;;;;4982086;28;20167;-77
2021/04/25 10:20:58;;;;;;;4.60;1.30;;;18.10;44.00;;;;;;5000123;28;20534;-78
2021/04/25 10:23:25;;;;;;;3.50;1.40;;;18.10;44.10;;;;;;4999853;28;20243;-78
2021/04/25 10:25:51;;;;;;;5.82;1.80;;;18.10;44.40;;;;;;4983148;28;20495;-77
2021/04/25 10:28:28;;;;;;;8.27;1.52;;;18.10;44.20;;;;;;4998761;28;20302;-77
2021/04/25 10:31:21;;;;;;;2.85;1.27;;;18.10;44.20;;;;;;4998631;28;20160;-77
2021/04/25 10:34:14;;;;;;;4.93;1.30;;;18.20;43.90;;;;;;4979982;28;20178;-77
2021/04/25 10:36:50;;;;;;;3.40;1.70;;;18.20;44.10;;;;;;4999446;28;20164;-77
2021/04/25 10:39:31;;;;;;;2.65;1.38;;;18.20;44.10;;;;;;5001007;28;20206;-78
2021/04/25 10:45:16;;;;;;;6.25;1.77;;;18.20;43.90;;;;;;5001286;28;20156;-77
2021/04/25 10:48:11;;;;;;;3.53;1.58;;;18.20;44.30;;;;;;5005235;28;20168;-78
2021/04/25 10:50:48;;;;;;;8.73;1.60;;;18.20;44.60;;;;;;5003895;28;20176;-79
2021/04/25 10:53:22;;;;;;;6.47;1.60;;;18.20;44.50;;;;;;5005348;28;20206;-78
2021/04/25 10:56:12;;;;;;;8.48;1.67;;;18.20;44.60;;;;;;4989303;28;20215;-79
2021/04/25 10:58:45;;;;;;;6.80;1.73;;;18.10;44.80;;;;;;5007119;28;20163;-78
2021/04/25 11:01:36;;;;;;;4.10;1.60;;;18.20;44.60;;;;;;5006422;28;20234;-78
2021/04/25 11:04:02;;;;;;;6.85;1.85;;;18.10;44.80;;;;;;5005161;28;20188;-78
2021/04/25 11:06:29;;;;;;;5.72;1.60;;;18.20;44.70;;;;;;4987966;28;20666;-78
2021/04/25 11:08:56;;;;;;;5.00;1.75;;;18.20;44.70;;;;;;4988500;28;20267;-78
2021/04/25 11:11:33;;;;;;;9.88;1.40;;;18.20;44.60;;;;;;5006434;28;20195;-77
2021/04/25 11:13:59;;;;;;;4.20;1.80;;;18.20;44.30;;;;;;4972510;28;20208;-78
2021/04/25 11:16:31;;;;;;;5.40;1.25;;;18.20;44.60;;;;;;5005969;28;20633;-79
2021/04/25 11:19:06;;;;;;;9.00;1.80;;;18.20;44.60;;;;;;5006310;28;20210;-78
2021/04/25 11:21:40;;;;;;;7.10;1.73;;;18.20;44.60;;;;;;4973846;28;20576;-78
2021/04/25 11:24:09;;;;;;;6.13;1.50;;;18.10;44.80;;;;;;4991796;28;20238;-78
2021/04/25 11:29:02;;;;;;;7.38;1.65;;;18.10;44.80;;;;;;5009115;28;20231;-78
2021/04/25 11:31:53;;;;;;;8.77;1.70;;;18.10;45.00;;;;;;5008689;28;20509;-78
2021/04/25 11:34:31;;;;;;;4.18;1.60;;;18.10;45.00;;;;;;5007273;28;20160;-78
2021/04/25 11:37:07;;;;;;;7.38;1.55;;;18.10;45.00;;;;;;5008054;28;20238;-78
2021/04/25 11:39:54;;;;;;;6.30;1.60;;;18.10;45.70;;;;;;4991266;28;20191;-78
2021/04/25 11:42:50;;;;;;;4.13;1.70;;;18.10;44.90;;;;;;4974391;28;20194;-78
2021/04/25 11:45:29;;;;;;;4.28;1.70;;;18.10;44.90;;;;;;5007422;28;20159;-78
2021/04/25 11:48:08;;;;;;;1.70;1.50;;;18.10;44.80;;;;;;5008099;28;20218;-79
2021/04/25 11:50:36;;;;;;;6.00;1.60;;;18.10;44.90;;;;;;4970285;28;20179;-78
2021/04/25 11:53:01;;;;;;;4.22;1.70;;;18.20;44.70;;;;;;4987849;28;20242;-78
2021/04/25 11:55:28;;;;;;;2.95;1.48;;;18.10;44.60;;;;;;4986719;28;20161;-78
2021/04/25 11:57:53;;;;;;;4.00;1.45;;;18.10;44.60;;;;;;4985104;28;20177;-78
2021/04/25 12:00:21;;;;;;;3.33;1.40;;;18.10;44.70;;;;;;4986258;28;20165;-78
2021/04/25 12:02:49;;;;;;;4.68;1.63;;;18.10;44.80;;;;;;4970586;28;20173;-79
2021/04/25 12:05:37;;;;;;;4.43;1.70;;;18.10;44.70;;;;;;4970779;28;20672;-78
2021/04/25 12:08:05;;;;;;;4.88;1.65;;;18.10;44.90;;;;;;4987605;28;20195;-78
2021/04/25 12:10:41;;;;;;;6.13;1.67;;;18.10;44.90;;;;;;4969487;28;20157;-78
2021/04/25 12:13:13;;;;;;;7.07;1.90;;;18.10;45.00;;;;;;4968817;28;20153;-78
2021/04/25 12:15:41;;;;;;;5.07;1.50;;;18.20;44.50;;;;;;4987066;28;20164;-78
2021/04/25 12:18:07;;;;;;;7.25;1.80;;;18.20;44.60;;;;;;4987097;28;20224;-78
2021/04/25 12:20:42;;;;;;;3.60;1.38;;;18.20;44.60;;;;;;4988112;28;20188;-78
2021/04/25 12:23:22;;;;;;;6.25;1.75;;;18.20;44.30;;;;;;4970627;28;20188;-78
2021/04/25 12:25:49;;;;;;;2.83;1.27;;;18.20;44.60;;;;;;4969907;28;20177;-77
2021/04/25 12:28:16;;;;;;;5.90;1.50;;;18.20;44.40;;;;;;4969652;28;20200;-78
2021/04/25 12:30:45;;;;;;;6.47;1.60;;;18.20;44.80;;;;;;4986964;28;20212;-77
2021/04/25 12:33:15;;;;;;;2.63;1.63;;;18.10;44.80;;;;;;4969963;28;20164;-78
2021/04/25 12:35:47;;;;;;;3.80;1.63;;;18.20;44.60;;;;;;4986415;28;20149;-77
2021/04/25 12:38:28;;;;;;;3.88;1.55;;;18.20;44.50;;;;;;4968267;28;20181;-77
2021/04/25 12:41:03;;;;;;;7.82;1.58;;;18.20;44.20;;;;;;4986165;28;20161;-78
2021/04/25 12:43:30;;;;;;;3.35;1.52;;;18.20;44.40;;;;;;4986618;28;20168;-78
2021/04/25 12:45:56;;;;;;;3.47;1.70;;;18.30;44.20;;;;;;4969366;28;20157;-77
2021/04/25 12:48:30;;;;;;;3.83;1.60;;;18.30;44.30;;;;;;4984928;28;20193;-78
2021/04/25 12:51:00;;;;;;;6.00;1.60;;;18.20;44.50;;;;;;4985329;28;20161;-78
2021/04/25 12:53:26;;;;;;;3.70;1.10;;;18.20;44.50;;;;;;4985888;28;20172;-78
2021/04/25 12:55:52;;;;;;;4.30;1.58;;;18.20;44.60;;;;;;4983786;28;20161;-77
2021/04/25 12:58:17;;;;;;;7.30;2.03;;;18.20;44.50;;;;;;4968374;28;20259;-78
2021/04/25 13:00:43;;;;;;;6.40;1.88;;;18.20;44.60;;;;;;4983711;28;20212;-78
2021/04/25 13:03:28;;;;;;;5.05;1.80;;;18.20;44.60;;;;;;4967149;28;20191;-77
2021/04/25 13:05:58;;;;;;;5.40;1.75;;;18.20;44.40;;;;;;4983190;28;20202;-78